KEYW/EYW METAR and TAF weather

Enter ICAO airport designator
Station Type Date Time Source
KEYW METAR 2022/01/29 09:53 UTC NOAA

KEYW 290953Z AUTO 33019G31KT 10SM SCT041 18/12 A3003 RMK AO2 PK WND 33034/0933 SLP169 T01830122


Station Type Date Time Source
KEYW Decoded METAR 2022/01/29 09:53 UTC NOAA

KEY WEST INTERNATIONAL AIRPORT , FL, United States (KEYW) 24-33N 81-46W 5M
Jan 29, 2022 - 04:53 AM EST / 2022.01.29 0953 UTC
Wind: from the NNW (330 degrees) at 22 MPH (19 KT) gusting to 36 MPH (31 KT):0
Visibility: 10 mile(s):0
Sky conditions: partly cloudy
Temperature: 64.9 F (18.3 C)
Dew Point: 54.0 F (12.2 C)
Relative Humidity: 67%
Pressure (altimeter): 30.03 in. Hg (1016 hPa)
ob: KEYW 290953Z AUTO 33019G31KT 10SM SCT041 18/12 A3003 RMK AO2 PK WND 33034/0933 SLP169 T01830122
cycle: 10

Station Type Date Time Source
KEYW TAF 2022/01/29 09:45 UTC NOAA

TAF
AMD KEYW 290842Z 2909/3006 32020G29KT P6SM VCSH SCT030 OVC080
TEMPO 2909/2910 -RA BKN030
FM291200 34021G32KT P6SM BKN035 OVC150
FM292000 33018G25KT P6SM SCT040
FM300200 34015G22KT P6SM SCT050
FM300300 34013KT P6SM FEW050

Example: see airport list